Time;durP1;ratioP1;P1;durP2;ratioP2;P2;SDS_P1;SDS_P2;PMS_P1;PMS_P2;Temp;Humidity;BMP_temperature;BMP_pressure;BME280_temperature;BME280_humidity;BME280_pressure;Samples;Min_cycle;Max_cycle;Signal;HPM_P1;HPM_P2
2022/05/28 00:01:14;;;;;;;;;;;19.00;81.80;;;;;;5074729;28;20040;-61
2022/05/28 00:03:41;;;;;;;1.48;0.52;;;18.90;81.90;;;;;;5100372;28;20181;-61
2022/05/28 00:06:19;;;;;;;1.27;0.50;;;18.90;81.80;;;;;;5087875;28;20101;-60
2022/05/28 00:08:46;;;;;;;0.95;0.40;;;19.00;81.90;;;;;;5083268;28;20041;-61
2022/05/28 00:11:21;;;;;;;1.05;0.52;;;19.00;82.00;;;;;;5080966;28;20040;-60
2022/05/28 00:13:48;;;;;;;2.33;0.90;;;18.90;82.00;;;;;;5086868;28;20048;-60
2022/05/28 00:16:15;;;;;;;0.82;0.57;;;18.90;82.00;;;;;;5082801;28;20059;-61
2022/05/28 00:18:41;;;;;;;1.40;0.40;;;18.90;82.10;;;;;;5087867;28;20542;-63
2022/05/28 00:21:09;;;;;;;2.00;0.60;;;19.00;82.20;;;;;;5083220;28;20051;-61
2022/05/28 00:23:38;;;;;;;1.13;0.60;;;19.00;82.20;;;;;;5071754;28;20045;-61
2022/05/28 00:26:05;;;;;;;0.77;0.47;;;18.90;82.10;;;;;;5083353;28;20040;-61
2022/05/28 00:28:31;;;;;;;1.67;0.65;;;18.90;82.10;;;;;;5091265;28;20044;-61
2022/05/28 00:30:57;;;;;;;;;;;18.90;82.20;;;;;;5082762;28;20071;-60
2022/05/28 00:33:23;;;;;;;2.13;0.50;;;19.00;82.30;;;;;;5096772;28;19924;-65
2022/05/28 00:35:50;;;;;;;0.68;0.60;;;18.90;82.20;;;;;;5071872;28;20516;-61
2022/05/28 00:38:16;;;;;;;2.28;0.60;;;18.90;82.20;;;;;;5072417;28;20569;-61
2022/05/28 00:40:49;;;;;;;1.00;0.50;;;18.90;82.40;;;;;;5071628;28;20044;-60
2022/05/28 00:43:16;;;;;;;0.43;0.43;;;18.90;82.50;;;;;;5075501;28;20047;-60
2022/05/28 00:45:42;;;;;;;;;;;18.90;82.60;;;;;;5081992;28;20477;-60
2022/05/28 00:48:09;;;;;;;1.48;0.40;;;18.90;82.90;;;;;;5074013;28;20444;-60
2022/05/28 00:50:36;;;;;;;1.52;0.55;;;18.90;82.70;;;;;;5071367;28;20063;-61
2022/05/28 00:53:03;;;;;;;3.92;0.80;;;18.90;82.80;;;;;;5090035;28;20465;-61
2022/05/28 00:55:33;;;;;;;0.75;0.60;;;18.90;83.00;;;;;;5076098;28;20070;-62
2022/05/28 00:58:01;;;;;;;1.20;0.50;;;18.90;83.00;;;;;;5072004;28;20444;-61
2022/05/28 01:00:27;;;;;;;0.45;0.38;;;18.90;83.00;;;;;;5074423;28;20089;-61
2022/05/28 01:03:00;;;;;;;;;;;18.90;83.20;;;;;;5088057;28;20048;-61
2022/05/28 01:05:29;;;;;;;0.88;0.50;;;18.90;83.50;;;;;;5089643;28;20375;-64
2022/05/28 01:08:05;;;;;;;0.73;0.50;;;18.90;83.30;;;;;;5071970;28;20044;-61
2022/05/28 01:10:53;;;;;;;0.63;0.40;;;18.90;83.40;;;;;;5071589;28;20102;-62
2022/05/28 01:13:35;;;;;;;0.93;0.57;;;18.90;83.50;;;;;;5071809;28;20640;-63
2022/05/28 01:16:20;;;;;;;0.63;0.40;;;18.90;83.60;;;;;;5071853;28;20044;-61
2022/05/28 01:19:18;;;;;;;0.40;0.40;;;18.90;83.80;;;;;;5070910;28;20541;-61
2022/05/28 01:21:55;;;;;;;0.88;0.47;;;18.90;84.50;;;;;;5072263;28;20408;-61
2022/05/28 01:24:42;;;;;;;0.88;0.30;;;18.90;83.90;;;;;;5071178;28;20139;-61
2022/05/28 01:27:22;;;;;;;2.13;0.75;;;18.90;83.90;;;;;;5070940;28;20044;-61
2022/05/28 01:29:55;;;;;;;0.55;0.55;;;18.90;84.10;;;;;;5070997;28;20048;-61
2022/05/28 01:32:25;;;;;;;2.03;0.50;;;18.90;84.10;;;;;;5078882;28;20052;-60
2022/05/28 01:34:51;;;;;;;0.82;0.40;;;18.90;84.20;;;;;;5075847;28;20056;-61
2022/05/28 01:37:18;;;;;;;0.80;0.65;;;18.90;84.30;;;;;;5071224;28;20048;-62
2022/05/28 01:39:46;;;;;;;0.85;0.40;;;18.90;84.40;;;;;;5075972;28;20055;-61
2022/05/28 01:42:14;;;;;;;1.27;0.55;;;18.90;84.50;;;;;;5087879;28;20059;-61
2022/05/28 01:44:43;;;;;;;1.85;0.40;;;18.90;84.50;;;;;;5070432;28;20460;-62
2022/05/28 01:47:11;;;;;;;0.30;0.30;;;18.90;84.60;;;;;;5071280;28;20096;-60
2022/05/28 01:49:38;;;;;;;1.13;0.40;;;18.90;84.70;;;;;;5072476;28;20121;-61
2022/05/28 01:52:05;;;;;;;0.50;0.50;;;18.90;84.70;;;;;;5080909;28;20119;-60
2022/05/28 01:54:39;;;;;;;0.63;0.50;;;18.90;84.80;;;;;;5090376;28;20083;-61
2022/05/28 01:57:06;;;;;;;1.55;0.50;;;18.90;84.90;;;;;;5091091;28;20083;-61
2022/05/28 01:59:33;;;;;;;1.15;0.30;;;18.90;85.00;;;;;;5087507;28;20079;-62
2022/05/28 02:02:03;;;;;;;2.42;0.50;;;18.80;85.00;;;;;;5084075;28;20084;-62
2022/05/28 02:04:30;;;;;;;1.95;0.47;;;18.90;85.10;;;;;;5089854;28;20139;-64
2022/05/28 02:06:56;;;;;;;0.40;0.30;;;18.80;85.00;;;;;;5085432;28;20040;-61
2022/05/28 02:09:25;;;;;;;1.42;0.57;;;18.80;85.10;;;;;;5070311;28;20036;-61
2022/05/28 02:12:16;;;;;;;0.38;0.38;;;18.80;85.20;;;;;;5069063;28;20055;-62
2022/05/28 02:14:54;;;;;;;1.83;0.68;;;18.80;85.30;;;;;;5062416;28;20060;-61
2022/05/28 02:17:21;;;;;;;1.67;0.43;;;18.90;85.30;;;;;;5071463;28;20497;-61
2022/05/28 02:20:14;;;;;;;1.10;0.40;;;18.80;85.30;;;;;;5069306;28;20048;-61
2022/05/28 02:23:08;;;;;;;2.08;0.93;;;18.80;85.40;;;;;;5070289;28;20127;-61
2022/05/28 02:25:45;;;;;;;1.48;0.47;;;18.80;85.40;;;;;;5068465;28;20167;-61
2022/05/28 02:28:13;;;;;;;0.47;0.30;;;18.80;85.40;;;;;;5070557;28;20119;-61
2022/05/28 02:30:56;;;;;;;2.03;0.70;;;18.80;85.50;;;;;;5070082;28;20044;-61
2022/05/28 02:33:22;;;;;;;0.73;0.40;;;18.90;86.30;;;;;;5080106;28;20389;-60
2022/05/28 02:35:48;;;;;;;;;;;18.80;85.60;;;;;;5090260;28;20131;-61
2022/05/28 02:38:15;;;;;;;1.05;0.40;;;18.80;85.90;;;;;;5089231;28;19924;-63
2022/05/28 02:40:40;;;;;;;0.40;0.40;;;18.80;85.70;;;;;;5069750;28;20059;-60
2022/05/28 02:43:06;;;;;;;;;;;18.80;85.70;;;;;;5070831;28;20487;-60
2022/05/28 02:45:32;;;;;;;0.82;0.40;;;18.80;86.00;;;;;;5075029;28;19924;-65
2022/05/28 02:47:57;;;;;;;;;;;18.80;85.80;;;;;;5071563;28;20056;-61
2022/05/28 02:50:26;;;;;;;1.00;0.50;;;18.80;86.10;;;;;;5070082;28;19924;-61
2022/05/28 02:52:52;;;;;;;1.73;0.60;;;18.80;85.70;;;;;;5084979;28;20132;-60
2022/05/28 02:55:18;;;;;;;0.80;0.40;;;18.80;85.70;;;;;;5089209;28;20048;-60
2022/05/28 02:57:44;;;;;;;;;;;18.80;85.80;;;;;;5089794;28;20047;-60
2022/05/28 03:00:11;;;;;;;0.90;0.40;;;18.80;86.00;;;;;;5090376;28;19923;-60
2022/05/28 03:02:36;;;;;;;4.68;1.00;;;18.80;85.90;;;;;;5089951;28;20047;-60
2022/05/28 03:05:02;;;;;;;;;;;18.80;85.80;;;;;;5090810;28;20127;-61
2022/05/28 03:07:28;;;;;;;1.80;0.50;;;18.80;86.00;;;;;;5061025;28;19924;-60
2022/05/28 03:09:54;;;;;;;;;;;18.80;85.90;;;;;;5081294;28;20976;-61
2022/05/28 03:12:19;;;;;;;0.55;0.43;;;18.80;86.30;;;;;;5088436;28;19927;-61
2022/05/28 03:14:45;;;;;;;;;;;18.80;86.00;;;;;;5090300;28;20044;-61
2022/05/28 03:17:11;;;;;;;1.33;0.85;;;18.70;86.30;;;;;;5076420;28;19924;-61
2022/05/28 03:19:36;;;;;;;;;;;18.80;86.00;;;;;;5069867;28;20048;-65
2022/05/28 03:22:02;;;;;;;1.92;0.50;;;18.70;86.40;;;;;;5075059;28;19920;-60
2022/05/28 03:24:28;;;;;;;3.40;0.60;;;18.70;86.00;;;;;;5089467;28;20552;-60
2022/05/28 03:26:57;;;;;;;;;;;18.80;86.20;;;;;;5088815;28;20220;-61
2022/05/28 03:29:24;;;;;;;0.55;0.32;;;18.80;87.20;;;;;;5089525;28;20016;-61
2022/05/28 03:31:50;;;;;;;0.88;0.60;;;18.80;86.20;;;;;;5081430;28;20052;-61
2022/05/28 03:34:15;;;;;;;;;;;18.70;86.20;;;;;;5069666;28;20044;-61
2022/05/28 03:36:41;;;;;;;2.88;0.47;;;18.70;86.50;;;;;;5069988;28;19921;-62
2022/05/28 03:39:07;;;;;;;;;;;18.70;86.30;;;;;;5070362;28;20486;-61
2022/05/28 03:41:33;;;;;;;0.40;0.40;;;18.70;86.60;;;;;;5068525;28;19920;-60
2022/05/28 03:43:59;;;;;;;0.40;0.40;;;18.70;86.30;;;;;;5069001;28;20080;-62
2022/05/28 03:46:25;;;;;;;;;;;18.70;86.40;;;;;;5089929;28;20159;-61
2022/05/28 03:48:53;;;;;;;0.60;0.43;;;18.70;86.60;;;;;;5088635;28;20388;-60
2022/05/28 03:51:19;;;;;;;0.52;0.28;;;18.70;87.00;;;;;;5086175;28;20056;-61
2022/05/28 03:53:44;;;;;;;;;;;18.70;86.40;;;;;;5069141;28;20049;-61
2022/05/28 03:56:10;;;;;;;0.98;0.55;;;18.70;86.60;;;;;;5068677;28;19921;-61
2022/05/28 03:58:36;;;;;;;;;;;18.70;86.50;;;;;;5069893;28;20052;-61
2022/05/28 04:01:01;;;;;;;0.47;0.47;;;18.70;86.60;;;;;;5072486;28;19974;-60
2022/05/28 04:03:28;;;;;;;;;;;18.70;86.50;;;;;;5081750;28;20392;-61
2022/05/28 04:05:54;;;;;;;0.75;0.47;;;18.70;86.60;;;;;;5068823;28;19990;-60
2022/05/28 04:08:19;;;;;;;;;;;18.70;86.50;;;;;;5069926;28;20474;-62
2022/05/28 04:10:45;;;;;;;0.93;0.40;;;18.70;86.70;;;;;;5067220;28;19975;-61
2022/05/28 04:13:11;;;;;;;0.93;0.80;;;18.70;86.50;;;;;;5069487;28;20045;-61
2022/05/28 04:15:37;;;;;;;;;;;18.60;86.50;;;;;;5068891;28;20102;-61
2022/05/28 04:18:03;;;;;;;1.50;0.98;;;18.70;86.80;;;;;;5086919;28;19989;-60
2022/05/28 04:20:28;;;;;;;;;;;18.60;86.60;;;;;;5089912;28;20083;-61
2022/05/28 04:22:54;;;;;;;1.25;0.55;;;18.70;86.80;;;;;;5089065;28;19920;-60
2022/05/28 04:25:19;;;;;;;;;;;18.70;86.60;;;;;;5092420;28;20066;-63
2022/05/28 04:27:45;;;;;;;0.35;0.30;;;18.70;86.90;;;;;;5080952;28;19924;-60
2022/05/28 04:30:11;;;;;;;;;;;18.60;86.60;;;;;;5082719;28;20473;-61
2022/05/28 04:32:37;;;;;;;0.30;0.30;;;18.60;87.00;;;;;;5083559;28;19931;-60
2022/05/28 04:35:02;;;;;;;;;;;18.70;86.70;;;;;;5074612;28;20123;-61
2022/05/28 04:37:28;;;;;;;1.50;0.43;;;18.60;87.00;;;;;;5081455;28;19946;-60
2022/05/28 04:39:54;;;;;;;;;;;18.60;86.80;;;;;;5081958;28;20056;-61
2022/05/28 04:42:19;;;;;;;0.65;0.30;;;18.60;87.10;;;;;;5072207;28;19943;-62
2022/05/28 04:44:45;;;;;;;;;;;18.60;86.80;;;;;;5072658;28;20098;-61
2022/05/28 04:47:10;;;;;;;3.95;0.40;;;18.60;87.10;;;;;;5072512;28;19969;-61
2022/05/28 04:49:36;;;;;;;;;;;18.60;86.90;;;;;;5072739;28;20056;-60
2022/05/28 04:52:02;;;;;;;2.00;0.45;;;18.60;87.20;;;;;;5072009;28;20018;-61
2022/05/28 04:54:27;;;;;;;;;;;18.60;87.00;;;;;;5081335;28;20041;-61
2022/05/28 04:56:53;;;;;;;2.85;0.80;;;18.60;87.20;;;;;;5081830;28;19920;-61
2022/05/28 04:59:19;;;;;;;;;;;18.60;87.00;;;;;;5086249;28;20052;-61
2022/05/28 05:01:45;;;;;;;1.40;0.93;;;18.60;87.10;;;;;;5080263;28;20285;-61
2022/05/28 05:04:10;;;;;;;;;;;18.60;87.00;;;;;;5091522;28;20419;-62
2022/05/28 05:06:36;;;;;;;0.80;0.60;;;18.60;87.00;;;;;;5092158;28;19920;-61
2022/05/28 05:09:02;;;;;;;;;;;18.60;87.00;;;;;;5089249;28;20882;-61
2022/05/28 05:11:27;;;;;;;0.93;0.38;;;18.60;87.20;;;;;;5069357;28;20386;-61
2022/05/28 05:13:53;;;;;;;;;;;18.60;87.10;;;;;;5073478;28;20134;-62
2022/05/28 05:16:19;;;;;;;0.73;0.45;;;18.60;87.20;;;;;;5076013;28;19975;-61
2022/05/28 05:18:44;;;;;;;0.85;0.60;;;18.60;87.10;;;;;;5070431;28;20043;-65
2022/05/28 05:21:13;;;;;;;;;;;18.60;87.10;;;;;;5080487;28;20055;-61
2022/05/28 05:23:43;;;;;;;0.93;0.40;;;18.60;87.20;;;;;;5091637;28;20061;-61
2022/05/28 05:26:15;;;;;;;0.30;0.30;;;18.60;87.20;;;;;;5090364;28;20054;-61
2022/05/28 05:28:41;;;;;;;1.45;0.40;;;18.60;87.30;;;;;;5087199;28;20182;-61
2022/05/28 05:31:07;;;;;;;1.02;0.75;;;18.60;87.30;;;;;;5071245;28;20135;-61
2022/05/28 05:33:32;;;;;;;;;;;18.60;87.30;;;;;;5077799;28;20119;-61
2022/05/28 05:35:58;;;;;;;2.53;0.80;;;18.60;87.30;;;;;;5074133;28;19960;-61
2022/05/28 05:38:24;;;;;;;;;;;18.60;87.40;;;;;;5089507;28;20065;-61
2022/05/28 05:40:51;;;;;;;1.20;0.47;;;18.60;87.30;;;;;;5089460;28;20006;-62
2022/05/28 05:43:17;;;;;;;0.43;0.40;;;18.60;87.30;;;;;;5091662;28;20055;-61
2022/05/28 05:45:54;;;;;;;0.40;0.38;;;18.60;87.30;;;;;;5081686;28;20055;-62
2022/05/28 05:48:19;;;;;;;0.43;0.43;;;18.60;87.40;;;;;;5080409;28;20048;-61
2022/05/28 05:50:45;;;;;;;;;;;18.60;87.40;;;;;;5091466;28;20052;-66
2022/05/28 05:53:11;;;;;;;1.33;0.50;;;18.60;87.40;;;;;;5091253;28;19951;-62
2022/05/28 05:55:37;;;;;;;;;;;18.60;87.50;;;;;;5089938;28;20047;-61
2022/05/28 05:58:04;;;;;;;1.00;0.43;;;18.60;87.50;;;;;;5077122;28;19924;-61
2022/05/28 06:00:30;;;;;;;0.30;0.30;;;18.60;87.40;;;;;;5071159;28;20056;-61
2022/05/28 06:02:56;;;;;;;0.65;0.40;;;18.60;87.30;;;;;;5075063;28;20075;-61
2022/05/28 06:05:21;;;;;;;;;;;18.60;87.40;;;;;;5091352;28;20091;-61
2022/05/28 06:07:47;;;;;;;1.65;0.55;;;18.60;87.40;;;;;;5090788;28;19923;-65
2022/05/28 06:10:13;;;;;;;;;;;18.60;88.00;;;;;;5106096;28;20047;-61
2022/05/28 06:12:39;;;;;;;1.90;0.40;;;18.60;87.40;;;;;;5090601;28;20323;-61
2022/05/28 06:15:06;;;;;;;0.25;0.25;;;18.60;87.40;;;;;;5090854;28;20048;-61
2022/05/28 06:17:34;;;;;;;0.47;0.47;;;18.60;87.40;;;;;;5091069;28;20079;-61
2022/05/28 06:20:04;;;;;;;0.80;0.50;;;18.60;87.50;;;;;;5089164;28;20048;-62
2022/05/28 06:22:29;;;;;;;0.60;0.52;;;18.60;87.50;;;;;;5076402;28;20036;-63
2022/05/28 06:24:55;;;;;;;;;;;18.60;87.40;;;;;;5105548;28;20590;-62
2022/05/28 06:27:22;;;;;;;1.65;0.55;;;18.60;87.20;;;;;;5090243;28;19924;-62
2022/05/28 06:29:47;;;;;;;2.15;0.80;;;18.60;87.40;;;;;;5090223;28;20452;-65
2022/05/28 06:32:13;;;;;;;;;;;18.60;87.30;;;;;;5091146;28;20097;-61
2022/05/28 06:34:39;;;;;;;1.13;0.60;;;18.60;87.10;;;;;;5075255;28;19924;-61
2022/05/28 06:37:08;;;;;;;;;;;18.60;87.20;;;;;;5071433;28;20554;-61
2022/05/28 06:39:35;;;;;;;0.38;0.35;;;18.60;87.30;;;;;;5070174;28;19927;-65
2022/05/28 06:42:01;;;;;;;0.43;0.43;;;18.60;87.20;;;;;;5089489;28;20051;-62
2022/05/28 06:44:29;;;;;;;1.95;0.40;;;18.60;87.20;;;;;;5087326;28;20492;-61
2022/05/28 06:46:57;;;;;;;1.95;0.60;;;18.60;87.20;;;;;;5081624;28;20056;-62
2022/05/28 06:49:23;;;;;;;;;;;18.60;87.10;;;;;;5079543;28;20552;-61
2022/05/28 06:51:50;;;;;;;0.47;0.47;;;18.60;87.00;;;;;;5070024;28;20015;-66
2022/05/28 06:54:17;;;;;;;2.03;0.82;;;18.60;87.10;;;;;;5069962;28;20055;-61
2022/05/28 06:56:42;;;;;;;;;;;18.70;87.10;;;;;;5071022;28;20131;-62
2022/05/28 06:59:08;;;;;;;0.65;0.50;;;18.60;87.00;;;;;;5078825;28;20036;-62
2022/05/28 07:01:34;;;;;;;;;;;18.70;87.00;;;;;;5084984;28;20093;-61
2022/05/28 07:03:59;;;;;;;1.33;0.70;;;18.60;86.90;;;;;;5068329;28;19921;-61
2022/05/28 07:06:27;;;;;;;;;;;18.60;87.00;;;;;;5077756;28;20045;-62
2022/05/28 07:08:53;;;;;;;1.70;0.65;;;18.60;86.90;;;;;;5081821;28;20365;-62
2022/05/28 07:11:18;;;;;;;;;;;18.60;87.00;;;;;;5081480;28;20055;-62
2022/05/28 07:13:44;;;;;;;1.55;0.70;;;18.60;87.20;;;;;;5089768;28;19924;-62
2022/05/28 07:16:11;;;;;;;;;;;18.60;87.10;;;;;;5089901;28;20044;-63
2022/05/28 07:18:38;;;;;;;0.85;0.57;;;18.70;87.10;;;;;;5089489;28;19932;-62
2022/05/28 07:21:05;;;;;;;2.83;0.80;;;18.60;86.90;;;;;;5089438;28;20130;-61
2022/05/28 07:23:31;;;;;;;0.70;0.60;;;18.60;86.90;;;;;;5072270;28;20094;-61
2022/05/28 07:26:05;;;;;;;1.20;0.70;;;18.70;87.00;;;;;;5087471;28;20044;-61
2022/05/28 07:28:33;;;;;;;4.35;1.02;;;18.60;87.00;;;;;;5087596;28;20086;-61
2022/05/28 07:31:04;;;;;;;3.45;0.95;;;18.60;87.00;;;;;;5069478;28;20485;-61
2022/05/28 07:33:36;;;;;;;1.08;0.50;;;18.60;87.10;;;;;;5088695;28;20108;-61
2022/05/28 07:36:04;;;;;;;4.10;0.65;;;18.70;87.20;;;;;;5088886;28;20473;-61
2022/05/28 07:38:31;;;;;;;0.40;0.40;;;18.70;87.30;;;;;;5071408;28;20048;-61
2022/05/28 07:41:00;;;;;;;2.17;0.82;;;18.60;87.40;;;;;;5067943;28;20054;-62
2022/05/28 07:43:26;;;;;;;1.50;0.50;;;18.70;87.50;;;;;;5080647;28;20055;-61
2022/05/28 07:45:51;;;;;;;;;;;18.60;87.50;;;;;;5070394;28;20041;-61
2022/05/28 07:48:17;;;;;;;2.65;0.70;;;18.60;87.70;;;;;;5068803;28;19924;-61
2022/05/28 07:50:44;;;;;;;;;;;18.70;87.70;;;;;;5069015;28;20669;-61
2022/05/28 07:53:10;;;;;;;0.50;0.50;;;18.70;87.90;;;;;;5078309;28;19931;-61
2022/05/28 07:55:36;;;;;;;;;;;18.60;87.60;;;;;;5074733;28;20510;-61
2022/05/28 07:58:11;;;;;;;1.50;0.47;;;18.70;88.00;;;;;;5074964;28;19943;-62
2022/05/28 08:00:42;;;;;;;1.35;0.70;;;18.60;87.80;;;;;;5074567;28;20059;-62
2022/05/28 08:03:09;;;;;;;1.15;0.68;;;18.60;87.80;;;;;;5085017;28;20482;-60
2022/05/28 08:05:36;;;;;;;3.03;0.70;;;18.60;87.80;;;;;;5086463;28;20048;-62
2022/05/28 08:08:02;;;;;;;1.27;0.30;;;18.60;87.80;;;;;;5091494;28;20044;-61
2022/05/28 08:10:28;;;;;;;0.47;0.47;;;18.70;88.00;;;;;;5091994;28;20055;-61
2022/05/28 08:12:53;;;;;;;;;;;18.70;87.90;;;;;;5093380;28;20062;-63
2022/05/28 08:15:19;;;;;;;5.53;0.65;;;18.70;88.00;;;;;;5084065;28;19927;-61
2022/05/28 08:17:45;;;;;;;;;;;18.60;87.90;;;;;;5078113;28;20497;-64
2022/05/28 08:20:11;;;;;;;0.40;0.40;;;18.60;88.10;;;;;;5083907;28;20408;-61
2022/05/28 08:25:21;;;;;;;1.25;0.60;;;18.60;88.00;;;;;;5090572;28;20112;-63
2022/05/28 08:27:46;;;;;;;;;;;18.70;88.10;;;;;;5092141;28;20153;-62
2022/05/28 08:30:12;;;;;;;1.08;0.40;;;18.70;88.40;;;;;;5092194;28;20381;-60
2022/05/28 08:32:38;;;;;;;;;;;18.60;88.10;;;;;;5093098;28;20040;-61
2022/05/28 08:35:04;;;;;;;2.65;0.90;;;18.60;88.40;;;;;;5091457;28;20388;-61
2022/05/28 08:37:30;;;;;;;0.47;0.47;;;18.60;88.20;;;;;;5092391;28;20520;-61
2022/05/28 08:39:55;;;;;;;;;;;18.60;88.10;;;;;;5085693;28;20048;-61
2022/05/28 08:42:25;;;;;;;0.77;0.60;;;18.60;88.40;;;;;;5089973;28;20352;-60
2022/05/28 08:44:53;;;;;;;0.85;0.50;;;18.60;88.30;;;;;;5088182;28;20052;-61
2022/05/28 08:47:22;;;;;;;2.95;0.68;;;18.60;88.30;;;;;;5091777;28;20043;-62
2022/05/28 08:49:50;;;;;;;1.00;0.63;;;18.60;88.30;;;;;;5092127;28;20511;-61
2022/05/28 08:52:28;;;;;;;0.73;0.55;;;18.60;88.40;;;;;;5091555;28;20066;-62
2022/05/28 08:54:59;;;;;;;1.23;0.60;;;18.60;88.50;;;;;;5088796;28;20063;-62
2022/05/28 08:58:04;;;;;;;1.13;0.50;;;18.60;88.60;;;;;;5090660;28;20040;-61
2022/05/28 09:00:46;;;;;;;2.22;0.63;;;18.70;88.70;;;;;;5087052;28;20123;-62
2022/05/28 09:03:14;;;;;;;1.48;0.50;;;18.60;88.70;;;;;;5089593;28;20459;-61
2022/05/28 09:06:10;;;;;;;1.08;0.60;;;18.70;88.80;;;;;;5091860;28;20127;-61
2022/05/28 09:08:51;;;;;;;0.60;0.50;;;18.60;88.80;;;;;;5072674;28;20040;-61
2022/05/28 09:11:18;;;;;;;3.60;1.10;;;18.60;88.80;;;;;;5087623;28;20044;-61
2022/05/28 09:13:47;;;;;;;0.73;0.60;;;18.60;88.80;;;;;;5092873;28;20052;-61
2022/05/28 09:16:18;;;;;;;1.30;0.50;;;18.60;88.90;;;;;;5092335;28;20055;-61
2022/05/28 09:18:44;;;;;;;0.88;0.85;;;18.70;89.00;;;;;;5092404;28;20524;-61
2022/05/28 09:21:15;;;;;;;1.70;0.60;;;18.70;89.00;;;;;;5091619;28;20048;-61
2022/05/28 09:23:55;;;;;;;1.52;0.70;;;18.70;89.10;;;;;;5091598;28;20071;-65
2022/05/28 09:26:56;;;;;;;2.00;0.80;;;18.70;89.10;;;;;;5091051;28;20051;-63
2022/05/28 09:29:50;;;;;;;5.25;1.33;;;18.60;89.10;;;;;;5058745;28;20052;-62
2022/05/28 09:33:00;;;;;;;6.28;1.88;;;18.60;88.70;;;;;;5075729;28;20060;-61
2022/05/28 09:35:38;;;;;;;5.45;1.27;;;18.60;88.70;;;;;;5028145;28;20140;-62
2022/05/28 09:38:38;;;;;;;4.18;1.20;;;18.60;88.70;;;;;;5029240;28;20050;-66
2022/05/28 09:41:37;;;;;;;4.03;1.60;;;18.60;88.70;;;;;;5060501;28;20114;-66
2022/05/28 09:44:33;;;;;;;5.95;2.10;;;18.60;88.80;;;;;;5070992;28;20553;-60
2022/05/28 09:47:12;;;;;;;3.88;1.45;;;18.60;88.80;;;;;;5071971;28;20060;-60
2022/05/28 09:49:52;;;;;;;2.70;1.08;;;18.50;88.90;;;;;;5071910;28;20379;-60
2022/05/28 09:52:27;;;;;;;2.28;1.00;;;18.60;89.00;;;;;;5073571;28;20048;-60
2022/05/28 09:55:11;;;;;;;9.88;2.63;;;18.60;89.10;;;;;;5089507;28;20555;-63
2022/05/28 09:57:45;;;;;;;9.35;1.83;;;18.40;86.50;;;;;;5072170;28;20044;-62
2022/05/28 10:00:12;;;;;;;8.88;2.58;;;18.10;86.50;;;;;;5089691;28;20056;-62
2022/05/28 10:04:28;;;;;;;9.32;2.25;;;17.80;86.60;;;;;;5091750;28;20055;-62
2022/05/28 10:05:33;;;;;;;8.30;1.42;;;17.50;86.20;;;;;;5070635;28;20052;-64
2022/05/28 10:08:09;;;;;;;9.90;1.83;;;17.20;86.50;;;;;;5087518;28;20119;-64
2022/05/28 10:10:37;;;;;;;9.50;2.10;;;17.00;87.00;;;;;;5089015;28;20047;-62
2022/05/28 10:13:13;;;;;;;5.70;1.70;;;16.80;87.30;;;;;;5087870;28;20079;-62
2022/05/28 10:16:00;;;;;;;7.53;2.00;;;16.70;86.90;;;;;;5091078;28;20040;-62
2022/05/28 10:18:33;;;;;;;9.23;1.58;;;16.60;85.60;;;;;;5088686;28;20058;-65
2022/05/28 10:21:04;;;;;;;8.20;1.58;;;16.50;85.10;;;;;;5089464;28;20044;-65
2022/05/28 10:23:29;;;;;;;12.63;2.25;;;16.50;85.50;;;;;;5083383;28;20109;-66
2022/05/28 10:25:55;;;;;;;7.25;1.55;;;16.50;85.80;;;;;;5085114;28;20127;-65
2022/05/28 10:28:28;;;;;;;;;;;16.60;86.10;;;;;;5078574;28;20541;-65
2022/05/28 10:30:55;;;;;;;4.28;1.17;;;16.70;86.30;;;;;;5088165;28;20289;-65
2022/05/28 10:33:24;;;;;;;4.50;1.48;;;16.80;86.10;;;;;;5087249;28;20044;-65
2022/05/28 10:35:52;;;;;;;4.20;1.40;;;16.90;86.10;;;;;;5087102;28;20070;-66
2022/05/28 10:38:22;;;;;;;2.53;1.30;;;17.00;86.20;;;;;;5085741;28;20086;-65
2022/05/28 10:40:57;;;;;;;5.82;1.48;;;17.10;86.40;;;;;;5084421;28;20043;-65
2022/05/28 10:43:31;;;;;;;7.60;1.42;;;17.10;86.50;;;;;;5078454;28;20242;-65
2022/05/28 10:46:06;;;;;;;9.45;1.20;;;17.20;86.60;;;;;;5076571;28;20070;-64
2022/05/28 10:49:04;;;;;;;9.57;1.70;;;17.30;86.70;;;;;;5088324;28;20828;-65
2022/05/28 10:51:36;;;;;;;;;;;17.40;87.00;;;;;;5088698;28;20349;-65
2022/05/28 10:54:39;;;;;;;5.05;1.10;;;17.40;87.30;;;;;;5090337;28;19930;-64
2022/05/28 10:57:22;;;;;;;4.53;1.55;;;17.50;87.60;;;;;;5088920;28;20051;-64
2022/05/28 11:00:06;;;;;;;4.20;1.23;;;17.50;87.40;;;;;;5090771;28;20070;-64
2022/05/28 11:02:44;;;;;;;3.47;1.23;;;17.60;87.70;;;;;;5076227;28;20052;-65
2022/05/28 11:05:37;;;;;;;3.40;1.20;;;17.60;87.80;;;;;;5086360;28;20196;-65
2022/05/28 11:08:17;;;;;;;3.70;1.42;;;17.70;88.10;;;;;;5077501;28;20477;-64
2022/05/28 11:10:48;;;;;;;4.45;1.60;;;17.70;88.10;;;;;;5083011;28;20312;-64
2022/05/28 11:13:46;;;;;;;4.95;1.00;;;17.80;88.30;;;;;;5089624;28;20100;-65
2022/05/28 11:16:52;;;;;;;2.67;0.88;;;17.80;88.60;;;;;;5090919;28;20051;-64
2022/05/28 11:19:35;;;;;;;4.18;1.10;;;17.80;88.70;;;;;;5036170;28;20513;-65
2022/05/28 11:22:28;;;;;;;4.30;1.30;;;17.90;89.30;;;;;;5074205;28;20052;-64
2022/05/28 11:25:05;;;;;;;1.98;0.98;;;17.90;89.30;;;;;;5089749;28;20052;-65
2022/05/28 11:27:46;;;;;;;2.97;1.20;;;17.90;89.20;;;;;;5087715;28;20096;-64
2022/05/28 11:30:45;;;;;;;5.13;1.10;;;17.90;90.00;;;;;;5074614;28;20115;-64
2022/05/28 11:33:35;;;;;;;6.93;1.38;;;18.00;90.00;;;;;;5078569;28;20044;-64
2022/05/28 11:36:06;;;;;;;2.75;0.98;;;18.00;90.00;;;;;;5075019;28;20044;-65
2022/05/28 11:39:00;;;;;;;1.27;0.90;;;18.00;90.00;;;;;;5078235;28;20410;-65
2022/05/28 11:41:56;;;;;;;4.75;1.17;;;18.00;90.00;;;;;;5072336;28;20087;-64
2022/05/28 11:44:33;;;;;;;2.05;0.80;;;18.10;90.10;;;;;;5093416;28;20051;-65
2022/05/28 11:47:09;;;;;;;3.42;1.02;;;18.10;90.20;;;;;;5093220;28;20062;-64
2022/05/28 11:52:22;;;;;;;5.00;1.40;;;18.10;90.80;;;;;;5100810;28;20024;-64
2022/05/28 11:54:47;;;;;;;;;;;18.10;90.50;;;;;;5091434;28;20508;-65
2022/05/28 11:57:22;;;;;;;3.17;1.25;;;18.20;91.50;;;;;;5072856;28;19931;-64
2022/05/28 11:59:50;;;;;;;3.05;1.00;;;18.20;90.90;;;;;;5073724;28;20141;-64
2022/05/28 12:02:27;;;;;;;6.93;0.93;;;18.20;90.90;;;;;;5093053;28;20048;-64
2022/05/28 12:04:53;;;;;;;7.93;2.30;;;18.20;90.80;;;;;;5081534;28;20765;-64
2022/05/28 12:07:36;;;;;;;;;;;18.20;90.10;;;;;;5080400;28;20127;-64
2022/05/28 12:10:08;;;;;;;2.72;1.13;;;18.10;89.20;;;;;;5074387;28;19927;-64
2022/05/28 12:13:23;;;;;;;3.95;1.67;;;18.10;89.90;;;;;;5075044;28;20208;-64
2022/05/28 12:15:49;;;;;;;4.03;1.38;;;18.10;89.50;;;;;;5031035;28;20050;-64
2022/05/28 12:18:14;;;;;;;;;;;18.10;89.50;;;;;;5031643;28;20123;-64
2022/05/28 12:20:58;;;;;;;3.42;1.30;;;18.10;90.00;;;;;;5064198;28;19934;-64
2022/05/28 12:23:34;;;;;;;7.72;1.70;;;18.20;90.00;;;;;;5093357;28;20404;-66
2022/05/28 12:26:03;;;;;;;;;;;18.20;90.10;;;;;;5093071;28;20063;-64
2022/05/28 12:28:43;;;;;;;1.40;0.82;;;18.20;90.50;;;;;;5092905;28;19923;-64
2022/05/28 12:31:25;;;;;;;4.05;1.10;;;18.20;90.40;;;;;;5092742;28;20454;-64
2022/05/28 12:33:58;;;;;;;3.10;0.90;;;18.20;90.50;;;;;;5085727;28;20056;-64
2022/05/28 12:36:44;;;;;;;2.15;1.10;;;18.20;90.50;;;;;;5072832;28;20080;-66
2022/05/28 12:39:13;;;;;;;5.13;1.10;;;18.20;90.80;;;;;;5072654;28;20052;-64
2022/05/28 12:41:40;;;;;;;4.50;1.48;;;18.30;90.80;;;;;;5082529;28;20285;-63
2022/05/28 12:44:22;;;;;;;2.60;1.10;;;18.30;91.00;;;;;;5091229;28;20105;-64
2022/05/28 12:46:58;;;;;;;3.85;1.13;;;18.30;91.00;;;;;;5082042;28;20052;-64
2022/05/28 12:49:33;;;;;;;3.30;1.20;;;18.30;91.20;;;;;;5072932;28;20051;-65
2022/05/28 12:52:22;;;;;;;5.47;1.20;;;18.30;91.30;;;;;;5072795;28;20565;-64
2022/05/28 12:55:18;;;;;;;1.25;0.88;;;18.30;91.40;;;;;;5089275;28;20044;-63
2022/05/28 12:57:57;;;;;;;4.57;1.20;;;18.30;91.50;;;;;;5089192;28;20044;-64
2022/05/28 13:00:25;;;;;;;2.65;1.15;;;18.30;91.70;;;;;;5072986;28;20044;-64
2022/05/28 13:02:52;;;;;;;3.97;1.50;;;18.30;91.60;;;;;;5072396;28;20155;-63
2022/05/28 13:05:31;;;;;;;2.55;1.02;;;18.40;91.60;;;;;;5080892;28;20048;-64
2022/05/28 13:08:05;;;;;;;7.05;1.38;;;18.30;90.40;;;;;;5076986;28;20607;-65
2022/05/28 13:10:30;;;;;;;4.50;1.67;;;18.30;90.40;;;;;;5078059;28;20571;-65
2022/05/28 13:12:56;;;;;;;;;;;18.30;90.30;;;;;;5077817;28;20158;-64
2022/05/28 13:16:00;;;;;;;4.28;1.10;;;18.20;89.30;;;;;;5078119;28;19971;-64
2022/05/28 13:18:37;;;;;;;3.80;1.75;;;18.30;89.80;;;;;;5072186;28;20036;-64
2022/05/28 13:21:11;;;;;;;3.53;1.48;;;18.30;90.00;;;;;;5089436;28;20051;-63
2022/05/28 13:23:56;;;;;;;3.20;1.08;;;18.30;90.00;;;;;;5081755;28;20047;-64
2022/05/28 13:26:31;;;;;;;3.53;1.15;;;18.30;90.20;;;;;;5072946;28;20737;-64
2022/05/28 13:29:26;;;;;;;4.93;0.90;;;18.30;90.30;;;;;;5079838;28;20066;-64
2022/05/28 13:32:01;;;;;;;1.88;1.10;;;18.30;90.50;;;;;;5089671;28;20055;-64